Time;durP1;ratioP1;P1;durP2;ratioP2;P2;SDS_P1;SDS_P2;PMS_P1;PMS_P2;Temp;Humidity;BMP_temperature;BMP_pressure;BME280_temperature;BME280_humidity;BME280_pressure;Samples;Min_cycle;Max_cycle;Signal;HPM_P1;HPM_P2
2023/12/13 00:00:38;;;;;;;37.47;18.02;;;;;;;9.41;79.92;99894.72;5091944;28;20060;-84
2023/12/13 00:03:30;;;;;;;30.52;16.58;;;;;;;9.41;79.88;99900.16;5091519;28;20051;-84
2023/12/13 00:06:28;;;;;;;23.10;12.88;;;;;;;9.45;80.65;99879.38;5086870;28;20040;-84
2023/12/13 00:09:23;;;;;;;19.67;10.30;;;;;;;9.28;79.94;99870.56;5090235;28;20043;-85
2023/12/13 00:12:17;;;;;;;14.33;9.77;;;;;;;9.25;81.82;99857.63;5090171;28;20531;-85
2023/12/13 00:15:10;;;;;;;30.70;13.73;;;;;;;9.41;80.95;99835.03;5093255;28;20047;-83
2023/12/13 00:18:05;;;;;;;28.65;14.27;;;;;;;9.59;80.12;99837.66;5091217;28;20043;-84
2023/12/13 00:20:59;;;;;;;32.73;16.47;;;;;;;9.72;79.04;99823.00;5088137;28;20047;-85
2023/12/13 00:23:54;;;;;;;19.17;9.82;;;;;;;9.59;78.51;99821.38;5090062;28;20269;-84
2023/12/13 00:26:49;;;;;;;12.50;7.30;;;;;;;9.64;79.79;99837.47;5089900;28;20058;-84
2023/12/13 00:29:39;;;;;;;14.70;8.18;;;;;;;9.68;79.35;99822.09;5093378;28;20051;-84
2023/12/13 00:32:34;;;;;;;10.57;7.40;;;;;;;9.55;78.97;99815.78;5090976;28;20428;-84
2023/12/13 00:35:26;;;;;;;12.83;8.20;;;;;;;9.61;79.97;99828.03;5088269;28;20110;-84
2023/12/13 00:38:18;;;;;;;12.85;9.32;;;;;;;9.67;79.98;99799.59;5092130;28;20372;-84
2023/12/13 00:41:07;;;;;;;15.65;8.93;;;;;;;9.69;78.64;99801.97;5089608;28;20054;-84
2023/12/13 00:44:02;;;;;;;15.98;9.35;;;;;;;9.76;79.58;99794.88;5088999;28;20074;-84
2023/12/13 00:47:01;;;;;;;7.37;5.67;;;;;;;9.60;78.89;99785.72;5090712;28;20051;-84
2023/12/13 00:49:54;;;;;;;30.77;14.13;;;;;;;9.78;78.87;99789.91;5087889;28;20198;-84
2023/12/13 00:52:49;;;;;;;16.92;10.52;;;;;;;9.71;78.01;99794.28;5091771;28;20047;-85
2023/12/13 00:55:44;;;;;;;9.57;5.93;;;;;;;9.69;80.23;99783.78;5088881;28;20043;-84
2023/12/13 00:58:38;;;;;;;13.67;8.33;;;;;;;9.81;79.00;99789.25;5086859;28;20432;-84
2023/12/13 01:01:28;;;;;;;9.52;7.15;;;;;;;9.76;78.84;99773.16;5090926;28;20277;-85
2023/12/13 01:04:25;;;;;;;8.25;5.55;;;;;;;9.87;78.74;99776.25;5086964;28;20070;-85
2023/12/13 01:07:23;;;;;;;6.78;4.57;;;;;;;9.99;78.24;99773.59;5091899;28;20042;-84
2023/12/13 01:10:18;;;;;;;8.85;5.97;;;;;;;9.84;78.15;99766.06;5089087;28;20063;-85
2023/12/13 01:13:10;;;;;;;10.60;6.77;;;;;;;9.86;78.30;99759.16;5086364;28;20050;-84
2023/12/13 01:16:05;;;;;;;8.75;5.47;;;;;;;9.88;78.54;99789.50;5090620;28;20270;-85
2023/12/13 01:18:59;;;;;;;8.98;5.68;;;;;;;9.84;78.95;99794.03;5088543;28;20039;-85
2023/12/13 01:21:54;;;;;;;11.00;5.20;;;;;;;9.88;78.70;99794.13;5092175;28;20120;-84
2023/12/13 01:24:46;;;;;;;10.40;6.20;;;;;;;9.92;78.54;99816.78;5088834;28;20269;-85
2023/12/13 01:27:36;;;;;;;11.80;6.40;;;;;;;9.80;78.64;99811.31;5087283;28;20047;-85
2023/12/13 01:30:30;;;;;;;8.55;5.93;;;;;;;9.92;79.57;99786.91;5090007;28;20059;-85
2023/12/13 01:33:19;;;;;;;8.05;5.18;;;;;;;9.85;78.75;99770.38;5087897;28;20047;-84
2023/12/13 01:36:14;;;;;;;7.78;5.70;;;;;;;9.90;78.34;99767.47;5092260;28;20054;-85
2023/12/13 01:39:07;;;;;;;11.85;5.68;;;;;;;9.93;77.92;99766.78;5089550;28;20046;-84
2023/12/13 01:41:57;;;;;;;7.63;5.47;;;;;;;9.93;79.35;99777.66;5087389;28;20051;-84
2023/12/13 01:44:51;;;;;;;8.63;4.57;;;;;;;9.91;78.99;99765.50;5091024;28;20043;-85
2023/12/13 01:47:46;;;;;;;10.30;5.13;;;;;;;9.87;79.18;99749.91;5088267;28;20055;-84
2023/12/13 01:50:38;;;;;;;8.80;5.55;;;;;;;9.99;78.48;99762.72;5086245;28;20281;-84
2023/12/13 01:53:32;;;;;;;4.67;3.77;;;;;;;9.93;78.25;99763.28;5088874;28;20047;-85
2023/12/13 01:56:22;;;;;;;8.02;4.95;;;;;;;9.96;79.37;99741.66;5087547;28;20273;-84
2023/12/13 01:59:16;;;;;;;7.32;4.75;;;;;;;9.95;79.13;99736.59;5090610;28;20540;-85
2023/12/13 02:02:08;;;;;;;11.70;5.07;;;;;;;9.98;78.97;99731.28;5088579;28;20047;-84
2023/12/13 02:05:04;;;;;;;8.52;5.63;;;;;;;9.94;78.74;99721.41;5087004;28;20050;-84
2023/12/13 02:07:57;;;;;;;6.55;4.80;;;;;;;9.99;78.20;99751.88;5089313;28;20059;-84
2023/12/13 02:10:47;;;;;;;10.88;5.28;;;;;;;9.90;78.77;99762.03;5087709;28;20046;-84
2023/12/13 02:13:37;;;;;;;7.40;5.22;;;;;;;9.97;79.09;99743.25;5085229;28;20046;-84
2023/12/13 02:16:32;;;;;;;8.75;5.28;;;;;;;10.01;79.02;99733.31;5089603;28;20520;-84
2023/12/13 02:19:24;;;;;;;5.50;3.80;;;;;;;10.04;78.78;99716.34;5087388;28;20114;-84
2023/12/13 02:22:18;;;;;;;6.78;4.53;;;;;;;10.14;78.32;99724.06;5091309;28;20273;-85
2023/12/13 02:25:16;;;;;;;8.73;5.00;;;;;;;10.02;77.79;99706.94;5092779;28;20047;-84
2023/12/13 02:28:07;;;;;;;9.63;4.90;;;;;;;9.50;80.37;99674.09;5089712;28;20043;-84
2023/12/13 02:31:05;;;;;;;8.85;5.22;;;;;;;9.53;82.65;99666.06;5093882;28;20054;-84
2023/12/13 02:33:56;;;;;;;8.55;5.72;;;;;;;9.72;80.65;99660.13;5091636;28;20051;-84
2023/12/13 02:36:53;;;;;;;7.68;5.90;;;;;;;9.73;81.16;99656.31;5094430;28;20047;-85
2023/12/13 02:39:45;;;;;;;6.25;4.80;;;;;;;9.84;80.03;99657.47;5075843;28;20047;-85
2023/12/13 02:42:37;;;;;;;5.75;4.05;;;;;;;10.01;79.59;99683.63;5089804;28;20050;-84
2023/12/13 02:45:26;;;;;;;7.22;5.07;;;;;;;10.08;78.60;99698.25;5094282;28;20042;-85
2023/12/13 02:48:18;;;;;;;6.30;3.78;;;;;;;10.07;78.42;99695.84;5091155;28;20050;-84
2023/12/13 02:51:13;;;;;;;6.47;4.38;;;;;;;10.04;78.00;99702.78;5088959;28;20050;-84
2023/12/13 02:54:08;;;;;;;5.55;3.53;;;;;;;10.10;78.29;99690.56;5089607;28;20054;-84
2023/12/13 02:57:02;;;;;;;5.40;3.38;;;;;;;10.12;78.22;99669.28;5088831;28;20043;-85
2023/12/13 02:59:57;;;;;;;5.97;4.45;;;;;;;10.13;77.69;99665.44;5092550;28;20047;-85
2023/12/13 03:02:52;;;;;;;8.05;4.78;;;;;;;10.21;77.93;99656.41;5092801;28;20413;-85
2023/12/13 03:05:41;;;;;;;9.20;5.20;;;;;;;10.13;77.75;99657.28;5095012;28;20420;-84
2023/12/13 03:08:36;;;;;;;7.47;4.50;;;;;;;10.18;77.98;99667.16;5091486;28;20055;-84
2023/12/13 03:11:30;;;;;;;6.18;4.97;;;;;;;10.15;78.27;99656.97;5087662;28;20043;-85
2023/12/13 03:14:25;;;;;;;5.47;3.35;;;;;;;9.98;78.95;99663.38;5088127;28;20046;-84
2023/12/13 03:17:20;;;;;;;7.95;4.88;;;;;;;9.91;80.06;99673.19;5090391;28;20039;-85
2023/12/13 03:20:13;;;;;;;4.80;4.20;;;;;;;9.99;79.72;99669.59;5086077;28;20050;-84
2023/12/13 03:23:08;;;;;;;8.88;5.30;;;;;;;10.07;78.36;99666.78;5087183;28;20055;-85
2023/12/13 03:26:00;;;;;;;5.27;3.20;;;;;;;9.97;79.02;99645.50;5088345;28;20040;-85
2023/12/13 03:28:54;;;;;;;8.73;6.20;;;;;;;9.92;79.30;99643.00;5092571;28;20273;-85
2023/12/13 03:31:49;;;;;;;9.23;5.88;;;;;;;9.99;78.73;99640.53;5091032;28;20051;-84
2023/12/13 03:34:43;;;;;;;8.20;4.53;;;;;;;9.78;79.84;99615.38;5087623;28;20406;-85
2023/12/13 03:37:43;;;;;;;3.90;3.30;;;;;;;9.63;81.18;99618.72;5092195;28;20051;-85
2023/12/13 03:40:37;;;;;;;7.93;5.18;;;;;;;9.59;80.48;99612.38;5088829;28;20051;-84
2023/12/13 03:43:29;;;;;;;8.65;5.10;;;;;;;9.65;79.49;99609.09;5089335;28;20469;-85
2023/12/13 03:46:21;;;;;;;5.90;4.03;;;;;;;9.72;80.80;99605.84;5091164;28;20043;-84
2023/12/13 03:49:16;;;;;;;7.10;4.97;;;;;;;9.51;80.84;99603.19;5088642;28;20047;-85
2023/12/13 03:52:10;;;;;;;7.35;4.15;;;;;;;9.75;80.96;99610.63;5091915;28;20047;-85
2023/12/13 03:55:03;;;;;;;6.93;4.20;;;;;;;9.96;79.43;99615.94;5089431;28;20046;-85
2023/12/13 03:57:57;;;;;;;5.88;4.40;;;;;;;10.04;79.06;99601.47;5093252;28;20054;-84
2023/12/13 04:00:55;;;;;;;4.28;3.53;;;;;;;10.14;78.73;99606.47;5090737;28;20237;-84
2023/12/13 04:03:50;;;;;;;5.97;4.25;;;;;;;10.12;77.74;99611.44;5089074;28;20047;-84
2023/12/13 04:06:42;;;;;;;7.32;4.82;;;;;;;10.15;78.44;99608.06;5091844;28;20044;-84
2023/12/13 04:09:41;;;;;;;4.07;3.08;;;;;;;10.20;77.71;99619.53;5089891;28;20532;-84
2023/12/13 04:12:36;;;;;;;11.32;5.93;;;;;;;10.12;76.79;99625.81;5092680;28;20051;-84
2023/12/13 04:15:31;;;;;;;5.93;3.73;;;;;;;9.68;79.06;99618.50;5091287;28;20051;-84
2023/12/13 04:18:25;;;;;;;5.77;4.23;;;;;;;9.78;80.39;99604.50;5087640;28;20110;-84
2023/12/13 04:21:17;;;;;;;6.23;3.53;;;;;;;9.95;78.74;99587.22;5091911;28;20047;-84
2023/12/13 04:24:12;;;;;;;7.35;4.65;;;;;;;9.72;78.46;99582.22;5083496;28;20046;-85
2023/12/13 04:27:02;;;;;;;8.00;4.07;;;;;;;9.73;80.78;99578.38;5068609;28;20039;-85
2023/12/13 04:29:57;;;;;;;5.85;4.00;;;;;;;9.61;80.89;99555.84;5070627;28;20059;-84
2023/12/13 04:32:47;;;;;;;5.00;2.88;;;;;;;9.73;81.07;99547.72;5068249;28;20051;-84
2023/12/13 04:35:42;;;;;;;7.30;4.18;;;;;;;9.85;79.72;99545.03;5072795;28;20036;-84
2023/12/13 04:38:34;;;;;;;6.10;4.30;;;;;;;9.97;79.27;99547.72;5069264;28;20051;-84
2023/12/13 04:41:29;;;;;;;5.45;4.15;;;;;;;9.85;79.20;99555.88;5066668;28;20063;-84
2023/12/13 04:44:16;;;;;;;5.10;4.25;;;;;;;9.94;78.89;99572.06;5066855;28;20047;-84
2023/12/13 04:47:08;;;;;;;8.10;4.70;;;;;;;9.96;79.18;99570.56;5069475;28;20073;-85
2023/12/13 04:50:01;;;;;;;8.77;5.20;;;;;;;9.82;80.26;99576.34;5066908;28;20051;-85
2023/12/13 04:52:53;;;;;;;6.25;4.55;;;;;;;9.86;79.80;99571.03;5070878;28;20043;-85
2023/12/13 04:55:48;;;;;;;5.32;4.10;;;;;;;9.57;80.68;99565.78;5068302;28;20059;-85
2023/12/13 04:58:41;;;;;;;4.72;4.00;;;;;;;9.53;82.48;99548.59;5071175;28;20047;-85
2023/12/13 05:01:28;;;;;;;6.07;4.72;;;;;;;9.71;81.40;99533.69;5069136;28;20051;-85
2023/12/13 05:04:18;;;;;;;7.18;4.35;;;;;;;9.91;80.23;99540.94;5075212;28;20043;-85
2023/12/13 05:07:10;;;;;;;7.00;4.45;;;;;;;9.98;78.59;99526.78;5087549;28;20039;-84
2023/12/13 05:10:02;;;;;;;8.43;4.25;;;;;;;9.93;79.25;99525.09;5080802;28;20043;-84
2023/12/13 05:12:57;;;;;;;6.07;3.90;;;;;;;10.09;78.41;99525.22;5080945;28;20043;-86
2023/12/13 05:15:52;;;;;;;7.10;3.88;;;;;;;10.20;78.31;99529.09;5080836;28;20047;-84
2023/12/13 05:18:47;;;;;;;5.05;3.67;;;;;;;10.25;77.99;99532.38;5076861;28;20040;-84
2023/12/13 05:21:41;;;;;;;9.40;4.03;;;;;;;10.13;78.31;99531.53;5080535;28;20532;-83
2023/12/13 05:24:36;;;;;;;8.63;4.88;;;;;;;10.14;79.23;99536.63;5078809;28;20127;-84
2023/12/13 05:27:31;;;;;;;8.35;4.90;;;;;;;10.16;78.78;99534.38;5084371;28;20409;-83
2023/12/13 05:30:23;;;;;;;6.83;3.97;;;;;;;10.23;78.85;99522.97;5076926;28;20059;-81
2023/12/13 05:33:18;;;;;;;8.02;4.40;;;;;;;10.23;78.34;99540.06;5075750;28;20798;-83
2023/12/13 05:36:11;;;;;;;8.57;4.57;;;;;;;10.22;78.67;99527.59;5081070;28;20043;-84
2023/12/13 05:39:00;;;;;;;10.20;5.57;;;;;;;10.16;78.05;99528.16;5079369;28;20056;-83
2023/12/13 05:41:56;;;;;;;7.95;4.50;;;;;;;10.12;78.52;99529.94;5077335;28;20067;-83
2023/12/13 05:44:45;;;;;;;12.68;7.28;;;;;;;10.05;79.44;99530.53;5081125;28;20039;-84
2023/12/13 05:47:40;;;;;;;5.40;4.10;;;;;;;10.14;79.44;99525.78;5063512;28;20068;-83
2023/12/13 05:50:34;;;;;;;3.77;3.20;;;;;;;10.14;78.70;99516.81;5075691;28;20047;-82
2023/12/13 05:53:29;;;;;;;3.90;3.37;;;;;;;10.01;78.11;99521.47;5078380;28;20043;-83
2023/12/13 05:56:18;;;;;;;3.97;3.20;;;;;;;9.85;79.17;99532.22;5075285;28;20039;-84
2023/12/13 05:59:10;;;;;;;5.22;3.65;;;;;;;9.70;80.70;99532.13;5086314;28;20507;-83
2023/12/13 06:02:00;;;;;;;5.28;3.40;;;;;;;9.66;80.60;99523.03;5084895;28;20042;-82
2023/12/13 06:04:54;;;;;;;4.80;3.88;;;;;;;9.52;81.53;99533.44;5077580;28;20039;-82
2023/12/13 06:07:49;;;;;;;6.72;4.10;;;;;;;9.49;82.90;99531.41;5085300;28;20047;-84
2023/12/13 06:10:41;;;;;;;5.20;3.97;;;;;;;9.51;82.77;99531.84;5078579;28;20047;-84
2023/12/13 06:13:33;;;;;;;7.88;4.78;;;;;;;9.42;82.48;99526.53;5080105;28;20045;-86
2023/12/13 06:16:25;;;;;;;8.93;4.78;;;;;;;9.58;82.29;99516.59;5079323;28;20040;-87
2023/12/13 06:19:20;;;;;;;9.73;5.75;;;;;;;9.69;81.45;99514.25;5081279;28;20036;-87
2023/12/13 06:22:15;;;;;;;8.32;4.65;;;;;;;9.76;81.15;99512.53;5081143;28;20043;-86
2023/12/13 06:25:10;;;;;;;5.65;3.80;;;;;;;9.81;80.00;99519.66;5079075;28;20044;-87
2023/12/13 06:28:03;;;;;;;7.28;3.33;;;;;;;9.85;80.01;99520.59;5071505;28;20039;-83
2023/12/13 06:30:57;;;;;;;3.30;2.47;;;;;;;9.64;78.92;99511.75;5080883;28;20056;-85
2023/12/13 06:33:52;;;;;;;2.22;1.70;;;;;;;9.73;78.91;99517.84;5079704;28;20047;-85
2023/12/13 06:36:47;;;;;;;2.72;2.30;;;;;;;9.64;78.96;99503.59;5082708;28;20044;-83
2023/12/13 06:39:41;;;;;;;4.95;2.30;;;;;;;9.53;79.08;99497.03;5066167;28;20051;-85
2023/12/13 06:42:36;;;;;;;3.57;2.50;;;;;;;9.57;78.68;99500.66;5086078;28;20043;-85
2023/12/13 06:45:30;;;;;;;3.30;2.17;;;;;;;9.61;78.36;99496.91;5084168;28;20512;-86
2023/12/13 06:48:25;;;;;;;6.32;3.15;;;;;;;9.66;78.26;99493.97;5078222;28;20044;-85
2023/12/13 06:51:19;;;;;;;6.45;2.92;;;;;;;9.67;78.09;99490.16;5087062;28;20047;-85
2023/12/13 06:54:12;;;;;;;8.20;4.43;;;;;;;9.74;78.04;99495.00;5078017;28;20043;-86
2023/12/13 06:57:12;;;;;;;5.13;3.20;;;;;;;9.77;77.98;99488.91;5088884;28;20039;-86
2023/12/13 07:00:06;;;;;;;2.92;2.53;;;;;;;9.75;78.08;99496.59;5086510;28;20050;-86
2023/12/13 07:02:58;;;;;;;4.67;2.60;;;;;;;9.77;77.93;99502.47;5080384;28;20044;-84
2023/12/13 07:05:53;;;;;;;6.15;2.50;;;;;;;9.78;77.74;99502.13;5082496;28;20294;-85
2023/12/13 07:08:48;;;;;;;5.28;2.28;;;;;;;9.82;77.71;99502.25;5081799;28;20040;-84
2023/12/13 07:11:40;;;;;;;4.30;2.45;;;;;;;9.80;78.16;99499.09;5092786;28;20051;-85
2023/12/13 07:14:35;;;;;;;3.08;2.00;;;;;;;9.79;78.02;99500.22;5086142;28;20428;-85
2023/12/13 07:17:27;;;;;;;5.53;2.57;;;;;;;9.63;79.44;99494.66;5086097;28;20039;-82
2023/12/13 07:20:19;;;;;;;5.50;2.53;;;;;;;9.68;79.37;99497.16;5090133;28;20047;-83
2023/12/13 07:23:13;;;;;;;7.07;3.40;;;;;;;9.72;79.33;99499.97;5088689;28;20046;-80
2023/12/13 07:26:06;;;;;;;5.85;3.15;;;;;;;9.76;79.70;99509.81;5086424;28;20450;-84
2023/12/13 07:29:01;;;;;;;4.68;3.17;;;;;;;9.70;79.84;99518.53;5075964;28;20047;-83
2023/12/13 07:31:50;;;;;;;7.05;3.60;;;;;;;9.72;79.77;99525.22;5081499;28;20051;-84
2023/12/13 07:34:41;;;;;;;8.35;3.17;;;;;;;9.70;79.91;99505.75;5085660;28;20051;-84
2023/12/13 07:37:33;;;;;;;9.63;4.80;;;;;;;9.67;79.91;99494.78;5083116;28;20039;-83
2023/12/13 07:40:27;;;;;;;9.00;3.42;;;;;;;9.68;80.24;99504.50;5081259;28;20406;-85
2023/12/13 07:43:19;;;;;;;7.37;3.23;;;;;;;9.61;80.91;99513.19;5088201;28;20046;-85
2023/12/13 07:46:12;;;;;;;11.27;5.63;;;;;;;9.58;81.26;99507.66;5087288;28;20097;-86
2023/12/13 07:49:04;;;;;;;5.85;3.35;;;;;;;9.50;81.41;99495.00;5087048;28;20043;-86
2023/12/13 07:51:56;;;;;;;9.98;3.83;;;;;;;9.60;81.69;99494.56;5090276;28;20074;-86
2023/12/13 07:54:48;;;;;;;5.95;3.70;;;;;;;9.59;80.89;99507.34;5088021;28;20039;-85
2023/12/13 07:57:40;;;;;;;9.43;3.67;;;;;;;9.63;81.22;99502.00;5093429;28;20050;-86
2023/12/13 08:00:35;;;;;;;10.75;5.75;;;;;;;9.64;81.28;99500.88;5089258;28;20050;-86
2023/12/13 08:03:29;;;;;;;13.00;5.67;;;;;;;9.57;80.88;99479.72;5087400;28;20126;-86
2023/12/13 08:06:24;;;;;;;12.13;5.45;;;;;;;9.59;81.36;99491.06;5090520;28;20079;-86
2023/12/13 08:09:19;;;;;;;21.80;5.90;;;;;;;9.55;82.03;99490.13;5086265;28;20032;-85
2023/12/13 08:12:13;;;;;;;5.78;3.42;;;;;;;9.38;82.40;99485.72;5091635;28;20273;-85
2023/12/13 08:15:09;;;;;;;9.40;7.80;;;;;;;9.32;83.78;99461.84;5089799;28;20047;-86
2023/12/13 08:18:02;;;;;;;7.13;3.30;;;;;;;9.43;83.02;99458.38;5087019;28;20039;-82
2023/12/13 08:20:54;;;;;;;5.05;3.10;;;;;;;9.28;82.85;99464.44;5076666;28;20043;-85
2023/12/13 08:23:49;;;;;;;7.13;3.75;;;;;;;9.27;83.89;99478.34;5066405;28;20052;-85
2023/12/13 08:26:39;;;;;;;7.05;3.90;;;;;;;9.25;84.37;99461.59;5082597;28;20527;-85
2023/12/13 08:29:30;;;;;;;4.18;2.97;;;;;;;9.19;84.39;99452.91;5087472;28;20055;-85
2023/12/13 08:32:25;;;;;;;4.20;3.17;;;;;;;9.27;84.66;99460.16;5082874;28;20047;-85
2023/12/13 08:35:20;;;;;;;5.93;3.08;;;;;;;9.33;83.89;99450.66;5088863;28;20059;-85
2023/12/13 08:38:14;;;;;;;6.82;2.70;;;;;;;9.20;84.78;99449.06;5068122;28;20073;-85
2023/12/13 08:41:11;;;;;;;7.85;3.50;;;;;;;9.35;85.00;99458.44;5084526;28;20043;-85
2023/12/13 08:44:02;;;;;;;8.05;4.07;;;;;;;9.44;84.01;99449.09;5087789;28;20047;-85
2023/12/13 08:46:56;;;;;;;7.47;3.17;;;;;;;9.35;83.72;99448.41;5071475;28;20515;-85
2023/12/13 08:49:48;;;;;;;11.43;3.93;;;;;;;9.37;84.03;99443.44;5088049;28;20043;-85
2023/12/13 08:52:43;;;;;;;5.72;4.10;;;;;;;9.52;84.01;99433.03;5083255;28;20267;-85
2023/12/13 08:55:38;;;;;;;5.68;4.38;;;;;;;9.58;83.24;99447.97;5081769;28;20511;-85
2023/12/13 08:58:28;;;;;;;5.35;4.28;;;;;;;9.59;82.78;99449.56;5088726;28;20124;-85
2023/12/13 09:01:20;;;;;;;6.20;4.15;;;;;;;9.53;83.29;99464.47;5085933;28;20039;-84
2023/12/13 09:04:13;;;;;;;6.65;4.20;;;;;;;9.56;83.67;99469.22;5086022;28;20051;-85
2023/12/13 09:07:07;;;;;;;10.35;4.45;;;;;;;9.44;83.96;99476.22;5087818;28;20040;-85
2023/12/13 09:10:02;;;;;;;11.97;5.97;;;;;;;9.58;83.66;99491.38;5085470;28;20080;-84
2023/12/13 09:12:56;;;;;;;8.90;5.43;;;;;;;9.62;83.53;99490.38;5089440;28;20052;-85
2023/12/13 09:15:48;;;;;;;5.25;3.53;;;;;;;9.65;83.22;99480.78;5087667;28;20409;-85
2023/12/13 09:18:43;;;;;;;5.10;4.10;;;;;;;9.56;83.34;99477.34;5082758;28;20050;-85
2023/12/13 09:21:37;;;;;;;11.18;4.70;;;;;;;9.59;83.91;99463.13;5085246;28;20051;-85
2023/12/13 09:24:34;;;;;;;12.30;7.82;;;;;;;9.64;83.29;99469.13;5083058;28;20052;-83
2023/12/13 09:27:23;;;;;;;10.52;6.13;;;;;;;9.47;83.21;99466.63;5083974;28;20047;-85
2023/12/13 09:30:18;;;;;;;7.95;5.45;;;;;;;9.50;84.34;99470.59;5078489;28;20035;-85
2023/12/13 09:33:13;;;;;;;5.75;3.83;;;;;;;9.60;83.92;99486.41;5084797;28;20050;-85
2023/12/13 09:36:07;;;;;;;14.30;7.28;;;;;;;9.61;83.34;99480.63;5067451;28;20386;-85
2023/12/13 09:39:02;;;;;;;9.73;6.63;;;;;;;9.67;83.14;99479.28;5064861;28;20052;-85
2023/12/13 09:42:08;;;;;;;10.30;5.30;;;;;;;9.69;83.28;99470.81;5068112;28;20536;-85
2023/12/13 09:45:07;;;;;;;10.73;5.30;;;;;;;9.57;83.92;99487.09;5076114;28;20274;-86
2023/12/13 09:47:59;;;;;;;8.40;5.63;;;;;;;9.50;84.49;99484.91;5086744;28;20048;-84
2023/12/13 09:50:58;;;;;;;8.35;5.40;;;;;;;9.58;84.00;99475.91;5083898;28;20047;-82
2023/12/13 09:53:55;;;;;;;13.85;7.18;;;;;;;9.69;83.86;99481.66;5079937;28;20130;-84
2023/12/13 09:56:50;;;;;;;10.63;6.72;;;;;;;9.72;83.12;99470.13;5082437;28;20044;-86
2023/12/13 09:59:45;;;;;;;20.50;5.90;;;;;;;9.77;82.70;99469.91;5082322;28;20409;-84
2023/12/13 10:02:39;;;;;;;10.35;6.03;;;;;;;9.81;82.68;99462.66;5090006;28;20043;-86
2023/12/13 10:05:38;;;;;;;7.35;4.25;;;;;;;9.70;82.71;99461.53;5092730;28;20048;-85
2023/12/13 10:08:36;;;;;;;15.18;10.20;;;;;;;9.82;82.66;99461.53;5089823;28;20417;-86
2023/12/13 10:11:30;;;;;;;12.63;8.68;;;;;;;9.89;81.94;99442.75;5087353;28;20492;-85
2023/12/13 10:14:25;;;;;;;10.48;6.18;;;;;;;9.94;81.58;99428.94;5080346;28;20051;-85
2023/12/13 10:17:20;;;;;;;8.80;5.83;;;;;;;9.93;81.64;99429.25;5088882;28;20243;-85
2023/12/13 10:20:12;;;;;;;8.10;5.55;;;;;;;9.85;82.06;99423.59;5084817;28;20047;-85
2023/12/13 10:23:05;;;;;;;11.02;7.78;;;;;;;9.91;82.01;99423.38;5062521;28;20052;-85
2023/12/13 10:25:59;;;;;;;9.75;7.05;;;;;;;9.93;81.87;99413.78;5089450;28;20039;-84
2023/12/13 10:28:52;;;;;;;8.68;6.70;;;;;;;9.87;81.90;99407.00;5081829;28;20047;-85
2023/12/13 10:31:53;;;;;;;11.00;7.55;;;;;;;9.83;82.15;99397.94;5087471;28;20047;-85
2023/12/13 10:34:48;;;;;;;9.25;6.13;;;;;;;9.86;82.29;99406.19;5084403;28;20041;-85
2023/12/13 10:37:42;;;;;;;6.18;4.45;;;;;;;9.86;82.09;99384.47;5089205;28;20039;-85
2023/12/13 10:40:35;;;;;;;8.50;5.73;;;;;;;9.87;82.87;99385.25;5086928;28;20047;-85
2023/12/13 10:43:29;;;;;;;10.23;7.15;;;;;;;9.92;82.91;99376.09;5085586;28;20051;-84
2023/12/13 10:46:21;;;;;;;11.87;7.43;;;;;;;9.92;82.77;99371.44;5091907;28;20052;-86
2023/12/13 10:49:15;;;;;;;11.73;6.70;;;;;;;9.97;82.36;99379.34;5089854;28;20298;-85
2023/12/13 10:52:11;;;;;;;9.90;6.40;;;;;;;10.05;82.54;99383.88;5087076;28;20047;-85
2023/12/13 10:55:04;;;;;;;9.68;7.22;;;;;;;10.07;81.95;99389.75;5090757;28;20409;-86
2023/12/13 10:57:58;;;;;;;9.43;5.70;;;;;;;10.06;82.39;99390.06;5087843;28;20044;-84
2023/12/13 11:00:53;;;;;;;8.97;5.67;;;;;;;10.08;82.19;99387.81;5092834;28;20047;-85
2023/12/13 11:03:49;;;;;;;12.93;7.10;;;;;;;10.11;82.11;99374.34;5089617;28;20051;-86
2023/12/13 11:06:40;;;;;;;7.47;5.22;;;;;;;10.12;82.15;99359.63;5089684;28;20047;-85
2023/12/13 11:09:36;;;;;;;15.98;6.13;;;;;;;10.13;81.92;99358.50;5085912;28;20052;-85
2023/12/13 11:12:30;;;;;;;12.93;6.80;;;;;;;10.18;82.33;99369.16;5086163;28;20043;-83
2023/12/13 11:15:21;;;;;;;11.80;7.30;;;;;;;10.20;82.30;99380.47;5090123;28;20282;-84
2023/12/13 11:18:11;;;;;;;6.97;4.40;;;;;;;10.23;82.84;99377.03;5080662;28;20051;-85
2023/12/13 11:21:07;;;;;;;15.57;6.47;;;;;;;10.25;82.69;99368.56;5081856;28;20043;-84
2023/12/13 11:24:10;;;;;;;19.58;10.77;;;;;;;10.24;82.51;99373.19;5086399;28;20047;-84
2023/12/13 11:27:08;;;;;;;20.50;10.57;;;;;;;10.24;82.55;99373.19;5086636;28;20044;-85
2023/12/13 11:30:00;;;;;;;17.35;10.35;;;;;;;10.22;82.89;99358.38;5089417;28;20051;-85
2023/12/13 11:32:53;;;;;;;10.73;6.45;;;;;;;10.18;82.95;99357.47;5086911;28;20052;-85
2023/12/13 11:35:47;;;;;;;9.70;5.40;;;;;;;10.17;83.09;99350.47;5082583;28;20047;-84
2023/12/13 11:38:41;;;;;;;9.32;6.15;;;;;;;10.22;83.45;99336.63;5081921;28;20047;-85
2023/12/13 11:41:36;;;;;;;6.13;4.38;;;;;;;10.25;82.71;99330.53;5084429;28;20051;-85
2023/12/13 11:44:34;;;;;;;9.45;5.78;;;;;;;10.24;82.18;99324.31;5083634;28;20051;-85
2023/12/13 11:47:27;;;;;;;10.48;7.43;;;;;;;10.23;82.55;99324.63;5081835;28;20051;-84
2023/12/13 11:50:22;;;;;;;10.90;7.13;;;;;;;10.20;82.31;99334.28;5079923;28;20047;-86
2023/12/13 11:53:16;;;;;;;7.38;5.10;;;;;;;10.18;82.86;99339.25;5081754;28;20040;-83
2023/12/13 11:56:13;;;;;;;4.63;3.30;;;;;;;10.17;83.01;99334.97;5075064;28;20059;-84
2023/12/13 11:59:07;;;;;;;9.52;4.95;;;;;;;10.14;83.65;99330.19;5078135;28;20278;-84
2023/12/13 12:02:06;;;;;;;4.70;3.20;;;;;;;10.33;82.86;99326.06;5082148;28;20044;-83
2023/12/13 12:05:01;;;;;;;9.77;5.78;;;;;;;10.33;82.92;99343.16;5079231;28;20273;-83
2023/12/13 12:08:02;;;;;;;6.80;3.40;;;;;;;10.29;82.98;99342.28;5083661;28;20047;-84
2023/12/13 12:10:57;;;;;;;7.07;4.72;;;;;;;10.24;82.35;99340.59;5081095;28;20535;-84
2023/12/13 12:13:50;;;;;;;6.97;4.28;;;;;;;10.11;82.64;99339.03;5082119;28;20083;-84
2023/12/13 12:16:42;;;;;;;5.78;3.53;;;;;;;9.98;83.11;99323.91;5079837;28;20047;-85
2023/12/13 12:19:34;;;;;;;7.28;4.38;;;;;;;10.11;83.84;99330.88;5079071;28;20114;-83
2023/12/13 12:22:26;;;;;;;6.88;5.25;;;;;;;10.06;83.50;99330.31;5079630;28;20040;-83
2023/12/13 12:25:17;;;;;;;10.70;6.40;;;;;;;10.19;84.41;99321.84;5075710;28;20071;-84
2023/12/13 12:28:12;;;;;;;13.15;7.22;;;;;;;10.18;83.28;99311.31;5083202;28;20063;-83
2023/12/13 12:31:06;;;;;;;8.20;6.32;;;;;;;10.13;83.93;99308.81;5079946;28;20055;-83
2023/12/13 12:34:05;;;;;;;4.38;3.92;;;;;;;10.27;83.22;99292.91;5073316;28;20039;-84
2023/12/13 12:37:01;;;;;;;14.43;7.78;;;;;;;10.62;83.42;99293.84;5075676;28;20409;-84
2023/12/13 12:39:53;;;;;;;5.50;4.03;;;;;;;10.62;82.07;99301.19;5082598;28;20035;-84
2023/12/13 12:42:45;;;;;;;5.45;4.22;;;;;;;10.60;81.14;99298.06;5086255;28;20044;-84
2023/12/13 12:45:37;;;;;;;8.83;4.97;;;;;;;10.63;80.90;99297.34;5083152;28;20040;-84
2023/12/13 12:48:31;;;;;;;6.00;3.50;;;;;;;10.65;80.75;99295.09;5082418;28;20051;-84
2023/12/13 12:51:23;;;;;;;9.97;3.70;;;;;;;10.60;80.66;99307.00;5085243;28;20048;-84
2023/12/13 12:54:15;;;;;;;6.25;4.43;;;;;;;10.64;80.38;99316.03;5082503;28;20059;-84
2023/12/13 12:57:10;;;;;;;4.72;3.20;;;;;;;10.60;80.43;99303.50;5080356;28;20040;-84
2023/12/13 13:00:05;;;;;;;6.32;4.07;;;;;;;10.54;80.17;99305.69;5084125;28;20043;-84
2023/12/13 13:02:59;;;;;;;4.03;2.95;;;;;;;10.57;80.03;99304.19;5082839;28;20040;-84
2023/12/13 13:05:52;;;;;;;3.20;2.05;;;;;;;10.53;79.86;99298.66;5085562;28;20048;-84
2023/12/13 13:08:42;;;;;;;12.00;5.65;;;;;;;10.36;81.40;99281.91;5078493;28;20051;-84
2023/12/13 13:11:36;;;;;;;9.27;4.18;;;;;;;10.49;81.32;99280.69;5075114;28;20521;-85
2023/12/13 13:14:28;;;;;;;4.82;3.28;;;;;;;10.65;80.17;99276.06;5080903;28;20052;-84
2023/12/13 13:17:21;;;;;;;5.38;3.60;;;;;;;10.72;79.34;99279.72;5082339;28;20059;-84
2023/12/13 13:20:18;;;;;;;5.10;2.92;;;;;;;10.73;79.00;99273.16;5085870;28;20035;-84
2023/12/13 13:23:10;;;;;;;4.25;3.35;;;;;;;10.70;79.41;99275.78;5082755;28;20043;-84
2023/12/13 13:26:05;;;;;;;8.50;5.13;;;;;;;10.69;79.73;99260.63;5073283;28;20047;-84
2023/12/13 13:29:00;;;;;;;6.63;2.63;;;;;;;10.79;79.41;99257.38;5080764;28;20668;-84
2023/12/13 13:31:52;;;;;;;3.63;2.53;;;;;;;10.86;79.22;99265.69;5084054;28;20110;-85
2023/12/13 13:34:41;;;;;;;3.65;3.13;;;;;;;10.84;78.84;99262.53;5071216;28;20059;-84
2023/12/13 13:37:36;;;;;;;3.38;2.60;;;;;;;10.80;79.07;99250.00;5085003;28;20401;-85
2023/12/13 13:40:31;;;;;;;3.58;2.47;;;;;;;10.76;78.54;99252.63;5083501;28;20539;-85